sensor_id;sensor_type;location;lat;lon;timestamp;P1;durP1;ratioP1;P2;durP2;ratioP2
48635;SDS011;34429;52.332;5.614;2022-07-04T00:01:34;11.90;;;8.43;;
48635;SDS011;34429;52.332;5.614;2022-07-04T00:04:02;12.05;;;8.50;;
48635;SDS011;34429;52.332;5.614;2022-07-04T00:06:31;14.18;;;9.27;;
48635;SDS011;34429;52.332;5.614;2022-07-04T00:08:59;13.32;;;8.27;;
48635;SDS011;34429;52.332;5.614;2022-07-04T00:11:27;11.25;;;8.07;;
48635;SDS011;34429;52.332;5.614;2022-07-04T00:13:56;14.60;;;8.85;;
48635;SDS011;34429;52.332;5.614;2022-07-04T00:16:24;12.82;;;8.82;;
48635;SDS011;34429;52.332;5.614;2022-07-04T00:18:55;14.75;;;8.23;;
48635;SDS011;34429;52.332;5.614;2022-07-04T00:21:23;12.25;;;8.68;;
48635;SDS011;34429;52.332;5.614;2022-07-04T00:23:51;11.90;;;9.07;;
48635;SDS011;34429;52.332;5.614;2022-07-04T00:26:20;14.70;;;9.85;;
48635;SDS011;34429;52.332;5.614;2022-07-04T00:28:48;14.80;;;9.47;;
48635;SDS011;34429;52.332;5.614;2022-07-04T00:31:16;14.73;;;9.02;;
48635;SDS011;34429;52.332;5.614;2022-07-04T00:33:45;11.60;;;8.73;;
48635;SDS011;34429;52.332;5.614;2022-07-04T00:36:16;9.88;;;8.35;;
48635;SDS011;34429;52.332;5.614;2022-07-04T00:38:44;15.63;;;8.65;;
48635;SDS011;34429;52.332;5.614;2022-07-04T00:41:12;11.55;;;8.35;;
48635;SDS011;34429;52.332;5.614;2022-07-04T00:43:41;12.20;;;8.48;;
48635;SDS011;34429;52.332;5.614;2022-07-04T00:46:09;13.88;;;8.32;;
48635;SDS011;34429;52.332;5.614;2022-07-04T00:48:37;15.07;;;8.45;;
48635;SDS011;34429;52.332;5.614;2022-07-04T00:51:06;9.10;;;8.10;;
48635;SDS011;34429;52.332;5.614;2022-07-04T00:53:37;12.95;;;9.20;;
48635;SDS011;34429;52.332;5.614;2022-07-04T00:56:05;18.73;;;9.32;;
48635;SDS011;34429;52.332;5.614;2022-07-04T00:58:34;15.90;;;8.32;;
48635;SDS011;34429;52.332;5.614;2022-07-04T01:01:02;16.02;;;8.63;;
48635;SDS011;34429;52.332;5.614;2022-07-04T01:03:30;12.80;;;9.40;;
48635;SDS011;34429;52.332;5.614;2022-07-04T01:05:59;14.32;;;9.30;;
48635;SDS011;34429;52.332;5.614;2022-07-04T01:08:28;14.68;;;8.95;;
48635;SDS011;34429;52.332;5.614;2022-07-04T01:10:59;10.85;;;9.13;;
48635;SDS011;34429;52.332;5.614;2022-07-04T01:13:27;12.43;;;8.73;;
48635;SDS011;34429;52.332;5.614;2022-07-04T01:15:55;14.13;;;9.18;;
48635;SDS011;34429;52.332;5.614;2022-07-04T01:18:24;14.80;;;8.80;;
48635;SDS011;34429;52.332;5.614;2022-07-04T01:20:55;12.10;;;8.35;;
48635;SDS011;34429;52.332;5.614;2022-07-04T01:23:23;14.15;;;8.70;;
48635;SDS011;34429;52.332;5.614;2022-07-04T01:25:55;15.57;;;8.52;;
48635;SDS011;34429;52.332;5.614;2022-07-04T01:28:24;15.20;;;8.55;;
48635;SDS011;34429;52.332;5.614;2022-07-04T01:30:52;13.93;;;8.85;;
48635;SDS011;34429;52.332;5.614;2022-07-04T01:33:21;16.92;;;9.80;;
48635;SDS011;34429;52.332;5.614;2022-07-04T01:35:49;16.63;;;9.60;;
48635;SDS011;34429;52.332;5.614;2022-07-04T01:38:20;14.35;;;8.68;;
48635;SDS011;34429;52.332;5.614;2022-07-04T01:40:49;11.38;;;9.57;;
48635;SDS011;34429;52.332;5.614;2022-07-04T01:43:17;15.20;;;8.98;;
48635;SDS011;34429;52.332;5.614;2022-07-04T01:45:46;13.70;;;9.10;;
48635;SDS011;34429;52.332;5.614;2022-07-04T01:48:14;16.60;;;9.05;;
48635;SDS011;34429;52.332;5.614;2022-07-04T01:53:11;13.32;;;9.27;;
48635;SDS011;34429;52.332;5.614;2022-07-04T01:55:42;18.17;;;10.23;;
48635;SDS011;34429;52.332;5.614;2022-07-04T01:58:10;16.65;;;10.77;;
48635;SDS011;34429;52.332;5.614;2022-07-04T02:00:39;15.20;;;9.15;;
48635;SDS011;34429;52.332;5.614;2022-07-04T02:03:20;15.23;;;8.73;;
48635;SDS011;34429;52.332;5.614;2022-07-04T02:05:48;15.00;;;8.73;;
48635;SDS011;34429;52.332;5.614;2022-07-04T02:08:16;13.57;;;8.45;;
48635;SDS011;34429;52.332;5.614;2022-07-04T02:10:48;13.43;;;8.13;;
48635;SDS011;34429;52.332;5.614;2022-07-04T02:13:16;13.38;;;8.30;;
48635;SDS011;34429;52.332;5.614;2022-07-04T02:15:42;14.07;;;8.60;;
48635;SDS011;34429;52.332;5.614;2022-07-04T02:18:10;18.45;;;8.98;;
48635;SDS011;34429;52.332;5.614;2022-07-04T02:20:39;14.60;;;8.70;;
48635;SDS011;34429;52.332;5.614;2022-07-04T02:23:07;14.65;;;7.95;;
48635;SDS011;34429;52.332;5.614;2022-07-04T02:25:36;17.50;;;8.65;;
48635;SDS011;34429;52.332;5.614;2022-07-04T02:28:07;16.50;;;8.27;;
48635;SDS011;34429;52.332;5.614;2022-07-04T02:30:35;11.13;;;8.27;;
48635;SDS011;34429;52.332;5.614;2022-07-04T02:33:03;12.10;;;8.35;;
48635;SDS011;34429;52.332;5.614;2022-07-04T02:35:31;16.98;;;9.02;;
48635;SDS011;34429;52.332;5.614;2022-07-04T02:38:00;11.65;;;7.22;;
48635;SDS011;34429;52.332;5.614;2022-07-04T02:40:28;15.25;;;7.97;;
48635;SDS011;34429;52.332;5.614;2022-07-04T02:42:56;15.55;;;8.23;;
48635;SDS011;34429;52.332;5.614;2022-07-04T02:45:27;14.32;;;8.35;;
48635;SDS011;34429;52.332;5.614;2022-07-04T02:47:56;12.98;;;7.72;;
48635;SDS011;34429;52.332;5.614;2022-07-04T02:50:24;14.75;;;7.55;;
48635;SDS011;34429;52.332;5.614;2022-07-04T02:52:52;11.23;;;8.10;;
48635;SDS011;34429;52.332;5.614;2022-07-04T02:55:20;15.30;;;8.45;;
48635;SDS011;34429;52.332;5.614;2022-07-04T02:57:49;8.93;;;7.57;;
48635;SDS011;34429;52.332;5.614;2022-07-04T03:00:17;10.07;;;7.78;;
48635;SDS011;34429;52.332;5.614;2022-07-04T03:02:48;13.02;;;8.27;;
48635;SDS011;34429;52.332;5.614;2022-07-04T03:05:17;14.75;;;9.43;;
48635;SDS011;34429;52.332;5.614;2022-07-04T03:07:45;18.40;;;9.65;;
48635;SDS011;34429;52.332;5.614;2022-07-04T03:10:13;13.57;;;10.47;;
48635;SDS011;34429;52.332;5.614;2022-07-04T03:12:42;13.80;;;9.45;;
48635;SDS011;34429;52.332;5.614;2022-07-04T03:15:10;18.13;;;10.05;;
48635;SDS011;34429;52.332;5.614;2022-07-04T03:17:38;17.75;;;10.05;;
48635;SDS011;34429;52.332;5.614;2022-07-04T03:20:10;14.95;;;9.63;;
48635;SDS011;34429;52.332;5.614;2022-07-04T03:22:38;16.65;;;10.25;;
48635;SDS011;34429;52.332;5.614;2022-07-04T03:25:06;13.52;;;9.15;;
48635;SDS011;34429;52.332;5.614;2022-07-04T03:27:35;15.25;;;9.48;;
48635;SDS011;34429;52.332;5.614;2022-07-04T03:30:03;20.85;;;10.13;;
48635;SDS011;34429;52.332;5.614;2022-07-04T03:32:32;14.27;;;10.20;;
48635;SDS011;34429;52.332;5.614;2022-07-04T03:35:01;18.00;;;9.63;;
48635;SDS011;34429;52.332;5.614;2022-07-04T03:37:32;14.57;;;10.27;;
48635;SDS011;34429;52.332;5.614;2022-07-04T03:40:00;17.73;;;10.38;;
48635;SDS011;34429;52.332;5.614;2022-07-04T03:42:29;16.48;;;10.02;;
48635;SDS011;34429;52.332;5.614;2022-07-04T03:44:57;15.20;;;10.48;;
48635;SDS011;34429;52.332;5.614;2022-07-04T03:47:25;15.25;;;10.40;;
48635;SDS011;34429;52.332;5.614;2022-07-04T03:49:54;17.55;;;10.18;;
48635;SDS011;34429;52.332;5.614;2022-07-04T03:52:22;17.02;;;10.30;;
48635;SDS011;34429;52.332;5.614;2022-07-04T03:54:53;17.67;;;10.65;;
48635;SDS011;34429;52.332;5.614;2022-07-04T03:57:24;17.02;;;10.50;;
48635;SDS011;34429;52.332;5.614;2022-07-04T03:59:56;16.52;;;11.20;;
48635;SDS011;34429;52.332;5.614;2022-07-04T04:02:25;15.43;;;10.57;;
48635;SDS011;34429;52.332;5.614;2022-07-04T04:04:53;16.60;;;10.45;;
48635;SDS011;34429;52.332;5.614;2022-07-04T04:07:34;15.60;;;10.50;;
48635;SDS011;34429;52.332;5.614;2022-07-04T04:10:05;16.77;;;10.03;;
48635;SDS011;34429;52.332;5.614;2022-07-04T04:12:34;15.43;;;10.18;;
48635;SDS011;34429;52.332;5.614;2022-07-04T04:15:03;16.03;;;10.23;;
48635;SDS011;34429;52.332;5.614;2022-07-04T04:17:32;19.15;;;10.75;;
48635;SDS011;34429;52.332;5.614;2022-07-04T04:20:00;18.02;;;10.57;;
48635;SDS011;34429;52.332;5.614;2022-07-04T04:22:29;16.50;;;10.10;;
48635;SDS011;34429;52.332;5.614;2022-07-04T04:24:57;16.88;;;10.98;;
48635;SDS011;34429;52.332;5.614;2022-07-04T04:27:28;17.13;;;9.93;;
48635;SDS011;34429;52.332;5.614;2022-07-04T04:29:56;14.68;;;10.38;;
48635;SDS011;34429;52.332;5.614;2022-07-04T04:32:25;15.90;;;11.48;;
48635;SDS011;34429;52.332;5.614;2022-07-04T04:34:53;21.30;;;11.10;;
48635;SDS011;34429;52.332;5.614;2022-07-04T04:37:21;16.58;;;10.95;;
48635;SDS011;34429;52.332;5.614;2022-07-04T04:39:50;20.33;;;10.88;;
48635;SDS011;34429;52.332;5.614;2022-07-04T04:42:18;14.95;;;10.93;;
48635;SDS011;34429;52.332;5.614;2022-07-04T04:44:49;16.60;;;10.80;;
48635;SDS011;34429;52.332;5.614;2022-07-04T04:47:17;17.10;;;11.70;;
48635;SDS011;34429;52.332;5.614;2022-07-04T04:49:46;17.17;;;12.23;;
48635;SDS011;34429;52.332;5.614;2022-07-04T04:52:14;18.27;;;11.60;;
48635;SDS011;34429;52.332;5.614;2022-07-04T04:54:43;19.77;;;10.80;;
48635;SDS011;34429;52.332;5.614;2022-07-04T04:57:11;20.23;;;11.80;;
48635;SDS011;34429;52.332;5.614;2022-07-04T04:59:39;14.98;;;10.80;;
48635;SDS011;34429;52.332;5.614;2022-07-04T05:02:10;14.85;;;11.73;;
48635;SDS011;34429;52.332;5.614;2022-07-04T05:04:39;13.73;;;10.65;;
48635;SDS011;34429;52.332;5.614;2022-07-04T05:07:07;15.80;;;10.07;;
48635;SDS011;34429;52.332;5.614;2022-07-04T05:09:35;19.50;;;11.20;;
48635;SDS011;34429;52.332;5.614;2022-07-04T05:12:04;19.30;;;10.95;;
48635;SDS011;34429;52.332;5.614;2022-07-04T05:14:33;18.08;;;10.90;;
48635;SDS011;34429;52.332;5.614;2022-07-04T05:17:01;18.60;;;10.60;;
48635;SDS011;34429;52.332;5.614;2022-07-04T05:19:32;17.83;;;10.20;;
48635;SDS011;34429;52.332;5.614;2022-07-04T05:22:01;15.65;;;10.70;;
48635;SDS011;34429;52.332;5.614;2022-07-04T05:24:29;18.13;;;10.48;;
48635;SDS011;34429;52.332;5.614;2022-07-04T05:26:57;14.38;;;9.55;;
48635;SDS011;34429;52.332;5.614;2022-07-04T05:29:26;15.70;;;9.82;;
48635;SDS011;34429;52.332;5.614;2022-07-04T05:31:54;17.10;;;10.15;;
48635;SDS011;34429;52.332;5.614;2022-07-04T05:34:22;20.02;;;9.50;;
48635;SDS011;34429;52.332;5.614;2022-07-04T05:36:53;15.80;;;10.07;;
48635;SDS011;34429;52.332;5.614;2022-07-04T05:39:22;17.35;;;10.68;;
48635;SDS011;34429;52.332;5.614;2022-07-04T05:41:50;16.67;;;10.07;;
48635;SDS011;34429;52.332;5.614;2022-07-04T05:44:18;13.90;;;9.75;;
48635;SDS011;34429;52.332;5.614;2022-07-04T05:46:46;14.82;;;9.40;;
48635;SDS011;34429;52.332;5.614;2022-07-04T05:49:15;17.63;;;9.98;;
48635;SDS011;34429;52.332;5.614;2022-07-04T05:51:43;12.63;;;8.82;;
48635;SDS011;34429;52.332;5.614;2022-07-04T05:54:14;14.57;;;9.60;;
48635;SDS011;34429;52.332;5.614;2022-07-04T05:56:42;14.27;;;9.20;;
48635;SDS011;34429;52.332;5.614;2022-07-04T05:59:11;13.13;;;9.40;;
48635;SDS011;34429;52.332;5.614;2022-07-04T06:01:39;14.20;;;9.43;;
48635;SDS011;34429;52.332;5.614;2022-07-04T06:04:07;17.58;;;9.13;;
48635;SDS011;34429;52.332;5.614;2022-07-04T06:06:36;19.03;;;8.77;;
48635;SDS011;34429;52.332;5.614;2022-07-04T06:09:04;16.02;;;8.30;;
48635;SDS011;34429;52.332;5.614;2022-07-04T06:11:35;19.43;;;9.00;;
48635;SDS011;34429;52.332;5.614;2022-07-04T06:14:03;12.82;;;8.05;;
48635;SDS011;34429;52.332;5.614;2022-07-04T06:16:31;22.03;;;9.60;;
48635;SDS011;34429;52.332;5.614;2022-07-04T06:19:00;14.52;;;8.05;;
48635;SDS011;34429;52.332;5.614;2022-07-04T06:21:28;13.90;;;7.87;;
48635;SDS011;34429;52.332;5.614;2022-07-04T06:23:56;10.37;;;7.50;;
48635;SDS011;34429;52.332;5.614;2022-07-04T06:26:26;15.60;;;8.43;;
48635;SDS011;34429;52.332;5.614;2022-07-04T06:28:57;13.25;;;8.48;;
48635;SDS011;34429;52.332;5.614;2022-07-04T06:31:25;14.10;;;7.47;;
48635;SDS011;34429;52.332;5.614;2022-07-04T06:33:54;16.05;;;7.30;;
48635;SDS011;34429;52.332;5.614;2022-07-04T06:36:35;10.38;;;6.90;;
48635;SDS011;34429;52.332;5.614;2022-07-04T06:39:03;11.77;;;7.23;;
48635;SDS011;34429;52.332;5.614;2022-07-04T06:41:31;14.13;;;7.65;;
48635;SDS011;34429;52.332;5.614;2022-07-04T06:44:02;14.85;;;7.63;;
48635;SDS011;34429;52.332;5.614;2022-07-04T06:46:31;13.70;;;7.57;;
48635;SDS011;34429;52.332;5.614;2022-07-04T06:49:00;9.23;;;6.70;;
48635;SDS011;34429;52.332;5.614;2022-07-04T06:51:28;13.48;;;7.72;;
48635;SDS011;34429;52.332;5.614;2022-07-04T06:53:56;12.32;;;7.38;;
48635;SDS011;34429;52.332;5.614;2022-07-04T06:56:25;13.57;;;7.63;;
48635;SDS011;34429;52.332;5.614;2022-07-04T06:58:53;12.10;;;7.60;;
48635;SDS011;34429;52.332;5.614;2022-07-04T07:01:24;15.45;;;8.05;;
48635;SDS011;34429;52.332;5.614;2022-07-04T07:03:52;13.02;;;7.88;;
48635;SDS011;34429;52.332;5.614;2022-07-04T07:06:20;10.80;;;7.50;;
48635;SDS011;34429;52.332;5.614;2022-07-04T07:08:49;13.55;;;7.18;;
48635;SDS011;34429;52.332;5.614;2022-07-04T07:11:17;14.32;;;7.20;;
48635;SDS011;34429;52.332;5.614;2022-07-04T07:13:47;15.02;;;9.05;;
48635;SDS011;34429;52.332;5.614;2022-07-04T07:16:16;13.57;;;8.02;;
48635;SDS011;34429;52.332;5.614;2022-07-04T07:18:47;13.02;;;7.38;;
48635;SDS011;34429;52.332;5.614;2022-07-04T07:21:16;15.05;;;7.10;;
48635;SDS011;34429;52.332;5.614;2022-07-04T07:23:45;13.00;;;6.80;;
48635;SDS011;34429;52.332;5.614;2022-07-04T07:26:14;10.45;;;6.35;;
48635;SDS011;34429;52.332;5.614;2022-07-04T07:28:42;14.73;;;6.90;;
48635;SDS011;34429;52.332;5.614;2022-07-04T07:31:11;16.53;;;6.50;;
48635;SDS011;34429;52.332;5.614;2022-07-04T07:33:39;12.38;;;6.60;;
48635;SDS011;34429;52.332;5.614;2022-07-04T07:36:10;12.68;;;6.30;;
48635;SDS011;34429;52.332;5.614;2022-07-04T07:38:39;11.77;;;5.07;;
48635;SDS011;34429;52.332;5.614;2022-07-04T07:41:07;10.73;;;4.72;;
48635;SDS011;34429;52.332;5.614;2022-07-04T07:43:36;8.65;;;5.35;;
48635;SDS011;34429;52.332;5.614;2022-07-04T07:46:06;10.00;;;4.78;;
48635;SDS011;34429;52.332;5.614;2022-07-04T07:48:35;8.77;;;4.90;;
48635;SDS011;34429;52.332;5.614;2022-07-04T07:51:03;9.38;;;5.00;;
48635;SDS011;34429;52.332;5.614;2022-07-04T07:53:34;9.77;;;4.38;;
48635;SDS011;34429;52.332;5.614;2022-07-04T07:56:02;9.50;;;4.90;;
48635;SDS011;34429;52.332;5.614;2022-07-04T07:58:31;11.07;;;4.43;;
48635;SDS011;34429;52.332;5.614;2022-07-04T08:00:59;9.60;;;3.90;;
48635;SDS011;34429;52.332;5.614;2022-07-04T08:03:29;9.15;;;3.55;;
48635;SDS011;34429;52.332;5.614;2022-07-04T08:06:10;7.80;;;3.65;;
48635;SDS011;34429;52.332;5.614;2022-07-04T08:08:42;6.25;;;3.45;;
48635;SDS011;34429;52.332;5.614;2022-07-04T08:11:11;8.50;;;3.63;;
48635;SDS011;34429;52.332;5.614;2022-07-04T08:13:40;9.45;;;3.28;;
48635;SDS011;34429;52.332;5.614;2022-07-04T08:18:37;5.97;;;3.33;;
48635;SDS011;34429;52.332;5.614;2022-07-04T08:21:06;9.25;;;2.75;;
48635;SDS011;34429;52.332;5.614;2022-07-04T08:23:35;10.15;;;2.90;;
48635;SDS011;34429;52.332;5.614;2022-07-04T08:26:06;6.45;;;2.60;;
48635;SDS011;34429;52.332;5.614;2022-07-04T08:28:34;5.43;;;1.90;;
48635;SDS011;34429;52.332;5.614;2022-07-04T08:31:03;5.45;;;1.83;;
48635;SDS011;34429;52.332;5.614;2022-07-04T08:33:31;7.28;;;2.35;;
48635;SDS011;34429;52.332;5.614;2022-07-04T08:36:00;7.13;;;3.15;;
48635;SDS011;34429;52.332;5.614;2022-07-04T08:38:28;10.35;;;3.40;;
48635;SDS011;34429;52.332;5.614;2022-07-04T08:40:57;8.32;;;2.70;;
48635;SDS011;34429;52.332;5.614;2022-07-04T08:43:32;5.90;;;2.95;;
48635;SDS011;34429;52.332;5.614;2022-07-04T08:46:03;5.78;;;2.20;;
48635;SDS011;34429;52.332;5.614;2022-07-04T08:48:32;6.65;;;1.95;;
48635;SDS011;34429;52.332;5.614;2022-07-04T08:51:03;8.60;;;2.10;;
48635;SDS011;34429;52.332;5.614;2022-07-04T08:53:37;5.47;;;1.73;;
48635;SDS011;34429;52.332;5.614;2022-07-04T08:56:07;6.47;;;2.00;;
48635;SDS011;34429;52.332;5.614;2022-07-04T08:59:00;4.78;;;1.90;;
48635;SDS011;34429;52.332;5.614;2022-07-04T09:01:29;5.40;;;1.67;;
48635;SDS011;34429;52.332;5.614;2022-07-04T09:03:59;6.57;;;1.88;;
48635;SDS011;34429;52.332;5.614;2022-07-04T09:06:29;2.83;;;1.45;;
48635;SDS011;34429;52.332;5.614;2022-07-04T09:08:59;5.45;;;1.73;;
48635;SDS011;34429;52.332;5.614;2022-07-04T09:11:27;3.17;;;1.38;;
48635;SDS011;34429;52.332;5.614;2022-07-04T09:13:56;5.22;;;1.67;;
48635;SDS011;34429;52.332;5.614;2022-07-04T09:16:28;7.50;;;2.08;;
48635;SDS011;34429;52.332;5.614;2022-07-04T09:18:56;4.68;;;1.63;;
48635;SDS011;34429;52.332;5.614;2022-07-04T09:24:12;4.10;;;1.20;;
48635;SDS011;34429;52.332;5.614;2022-07-04T09:26:41;3.33;;;1.60;;
48635;SDS011;34429;52.332;5.614;2022-07-04T09:29:12;3.13;;;1.20;;
48635;SDS011;34429;52.332;5.614;2022-07-04T09:31:44;3.08;;;1.83;;
48635;SDS011;34429;52.332;5.614;2022-07-04T09:34:12;3.58;;;1.45;;
48635;SDS011;34429;52.332;5.614;2022-07-04T09:36:41;3.95;;;1.60;;
48635;SDS011;34429;52.332;5.614;2022-07-04T09:39:12;5.35;;;1.50;;
48635;SDS011;34429;52.332;5.614;2022-07-04T09:41:49;3.95;;;1.33;;
48635;SDS011;34429;52.332;5.614;2022-07-04T09:44:19;2.95;;;1.20;;
48635;SDS011;34429;52.332;5.614;2022-07-04T09:49:19;2.45;;;1.25;;
48635;SDS011;34429;52.332;5.614;2022-07-04T09:51:49;2.97;;;1.30;;
48635;SDS011;34429;52.332;5.614;2022-07-04T09:54:20;8.13;;;1.52;;
48635;SDS011;34429;52.332;5.614;2022-07-04T09:56:51;2.03;;;1.23;;
48635;SDS011;34429;52.332;5.614;2022-07-04T09:59:21;3.05;;;1.15;;
48635;SDS011;34429;52.332;5.614;2022-07-04T10:01:52;1.92;;;1.30;;
48635;SDS011;34429;52.332;5.614;2022-07-04T10:04:41;2.03;;;1.25;;
48635;SDS011;34429;52.332;5.614;2022-07-04T10:07:11;3.42;;;1.65;;
48635;SDS011;34429;52.332;5.614;2022-07-04T10:09:39;2.92;;;1.33;;
48635;SDS011;34429;52.332;5.614;2022-07-04T10:12:08;2.45;;;1.30;;
48635;SDS011;34429;52.332;5.614;2022-07-04T10:17:07;3.10;;;1.10;;
48635;SDS011;34429;52.332;5.614;2022-07-04T10:19:36;2.90;;;1.10;;
48635;SDS011;34429;52.332;5.614;2022-07-04T10:22:05;1.77;;;1.27;;
48635;SDS011;34429;52.332;5.614;2022-07-04T10:24:36;2.53;;;1.40;;
48635;SDS011;34429;52.332;5.614;2022-07-04T10:27:04;2.55;;;1.40;;
48635;SDS011;34429;52.332;5.614;2022-07-04T10:29:32;5.03;;;1.60;;
48635;SDS011;34429;52.332;5.614;2022-07-04T10:32:01;2.58;;;1.25;;
48635;SDS011;34429;52.332;5.614;2022-07-04T10:34:34;3.60;;;1.20;;
48635;SDS011;34429;52.332;5.614;2022-07-04T10:37:07;2.55;;;1.50;;
48635;SDS011;34429;52.332;5.614;2022-07-04T10:39:35;2.55;;;1.10;;
48635;SDS011;34429;52.332;5.614;2022-07-04T10:42:04;3.20;;;1.40;;
48635;SDS011;34429;52.332;5.614;2022-07-04T10:47:03;3.28;;;1.10;;
48635;SDS011;34429;52.332;5.614;2022-07-04T10:49:34;1.80;;;1.23;;
48635;SDS011;34429;52.332;5.614;2022-07-04T10:52:09;2.90;;;1.50;;
48635;SDS011;34429;52.332;5.614;2022-07-04T10:54:39;4.00;;;1.30;;
48635;SDS011;34429;52.332;5.614;2022-07-04T10:57:10;2.08;;;1.30;;
48635;SDS011;34429;52.332;5.614;2022-07-04T10:59:40;22.02;;;1.95;;
48635;SDS011;34429;52.332;5.614;2022-07-04T11:02:24;2.75;;;1.08;;
48635;SDS011;34429;52.332;5.614;2022-07-04T11:05:04;2.40;;;1.10;;
48635;SDS011;34429;52.332;5.614;2022-07-04T11:10:17;1.50;;;1.00;;
48635;SDS011;34429;52.332;5.614;2022-07-04T11:13:07;2.83;;;1.33;;
48635;SDS011;34429;52.332;5.614;2022-07-04T11:15:56;3.60;;;1.30;;
48635;SDS011;34429;52.332;5.614;2022-07-04T11:18:40;2.20;;;1.13;;
48635;SDS011;34429;52.332;5.614;2022-07-04T11:21:20;4.72;;;1.08;;
48635;SDS011;34429;52.332;5.614;2022-07-04T11:23:50;5.10;;;1.30;;
48635;SDS011;34429;52.332;5.614;2022-07-04T11:26:23;5.78;;;1.33;;
48635;SDS011;34429;52.332;5.614;2022-07-04T11:28:53;2.25;;;1.20;;
48635;SDS011;34429;52.332;5.614;2022-07-04T11:31:34;3.50;;;1.20;;
48635;SDS011;34429;52.332;5.614;2022-07-04T11:34:03;2.63;;;1.25;;
48635;SDS011;34429;52.332;5.614;2022-07-04T11:36:34;2.45;;;1.13;;
48635;SDS011;34429;52.332;5.614;2022-07-04T11:39:03;11.32;;;1.50;;
48635;SDS011;34429;52.332;5.614;2022-07-04T11:41:33;9.82;;;1.45;;
48635;SDS011;34429;52.332;5.614;2022-07-04T11:44:15;27.27;;;2.17;;
48635;SDS011;34429;52.332;5.614;2022-07-04T11:47:07;3.78;;;1.20;;
48635;SDS011;34429;52.332;5.614;2022-07-04T11:49:41;2.70;;;1.17;;
48635;SDS011;34429;52.332;5.614;2022-07-04T11:52:14;3.30;;;1.00;;
48635;SDS011;34429;52.332;5.614;2022-07-04T11:54:45;2.38;;;0.90;;
48635;SDS011;34429;52.332;5.614;2022-07-04T11:57:16;3.55;;;1.08;;
48635;SDS011;34429;52.332;5.614;2022-07-04T11:59:52;3.17;;;1.00;;
48635;SDS011;34429;52.332;5.614;2022-07-04T12:02:23;3.95;;;1.10;;
48635;SDS011;34429;52.332;5.614;2022-07-04T12:04:52;1.95;;;0.88;;
48635;SDS011;34429;52.332;5.614;2022-07-04T12:07:25;3.65;;;1.10;;
48635;SDS011;34429;52.332;5.614;2022-07-04T12:09:55;3.38;;;1.20;;
48635;SDS011;34429;52.332;5.614;2022-07-04T12:12:24;3.63;;;1.02;;
48635;SDS011;34429;52.332;5.614;2022-07-04T12:14:58;2.05;;;1.05;;
48635;SDS011;34429;52.332;5.614;2022-07-04T12:17:31;4.57;;;1.10;;
48635;SDS011;34429;52.332;5.614;2022-07-04T12:20:02;1.70;;;1.00;;
48635;SDS011;34429;52.332;5.614;2022-07-04T12:22:42;1.73;;;0.93;;
48635;SDS011;34429;52.332;5.614;2022-07-04T12:25:23;2.22;;;1.20;;
48635;SDS011;34429;52.332;5.614;2022-07-04T12:27:56;1.10;;;0.90;;
48635;SDS011;34429;52.332;5.614;2022-07-04T12:30:27;3.42;;;1.10;;
48635;SDS011;34429;52.332;5.614;2022-07-04T12:32:58;2.40;;;1.17;;
48635;SDS011;34429;52.332;5.614;2022-07-04T12:35:31;2.13;;;0.90;;
48635;SDS011;34429;52.332;5.614;2022-07-04T12:38:07;3.05;;;1.10;;
48635;SDS011;34429;52.332;5.614;2022-07-04T12:40:36;2.42;;;1.10;;
48635;SDS011;34429;52.332;5.614;2022-07-04T12:43:16;4.28;;;1.20;;
48635;SDS011;34429;52.332;5.614;2022-07-04T12:45:45;2.80;;;1.30;;
48635;SDS011;34429;52.332;5.614;2022-07-04T12:48:16;3.40;;;1.20;;
48635;SDS011;34429;52.332;5.614;2022-07-04T12:50:45;3.13;;;0.90;;
48635;SDS011;34429;52.332;5.614;2022-07-04T12:53:17;1.90;;;1.00;;
48635;SDS011;34429;52.332;5.614;2022-07-04T12:55:46;2.83;;;1.00;;
48635;SDS011;34429;52.332;5.614;2022-07-04T12:58:18;3.20;;;1.10;;
48635;SDS011;34429;52.332;5.614;2022-07-04T13:00:47;3.05;;;1.23;;
48635;SDS011;34429;52.332;5.614;2022-07-04T13:03:15;2.47;;;1.00;;
48635;SDS011;34429;52.332;5.614;2022-07-04T13:05:43;1.30;;;0.90;;
48635;SDS011;34429;52.332;5.614;2022-07-04T13:08:11;3.53;;;1.02;;
48635;SDS011;34429;52.332;5.614;2022-07-04T13:10:42;1.50;;;1.05;;
48635;SDS011;34429;52.332;5.614;2022-07-04T13:13:11;3.00;;;1.10;;
48635;SDS011;34429;52.332;5.614;2022-07-04T13:15:36;2.05;;;1.10;;
48635;SDS011;34429;52.332;5.614;2022-07-04T13:18:05;2.40;;;1.05;;
48635;SDS011;34429;52.332;5.614;2022-07-04T13:20:33;4.35;;;1.20;;
48635;SDS011;34429;52.332;5.614;2022-07-04T13:23:01;1.35;;;0.95;;
48635;SDS011;34429;52.332;5.614;2022-07-04T13:25:30;1.70;;;0.90;;
48635;SDS011;34429;52.332;5.614;2022-07-04T13:28:00;4.50;;;1.17;;
48635;SDS011;34429;52.332;5.614;2022-07-04T13:30:29;2.60;;;1.10;;
48635;SDS011;34429;52.332;5.614;2022-07-04T13:32:57;2.65;;;1.23;;
48635;SDS011;34429;52.332;5.614;2022-07-04T13:35:25;3.10;;;1.00;;
48635;SDS011;34429;52.332;5.614;2022-07-04T13:37:54;3.33;;;1.10;;
48635;SDS011;34429;52.332;5.614;2022-07-04T13:40:24;3.55;;;1.20;;
48635;SDS011;34429;52.332;5.614;2022-07-04T13:42:52;4.50;;;1.38;;
48635;SDS011;34429;52.332;5.614;2022-07-04T13:45:41;2.30;;;1.10;;
48635;SDS011;34429;52.332;5.614;2022-07-04T13:48:14;2.80;;;1.13;;
48635;SDS011;34429;52.332;5.614;2022-07-04T13:50:42;2.47;;;1.10;;
48635;SDS011;34429;52.332;5.614;2022-07-04T13:53:11;3.00;;;1.05;;
48635;SDS011;34429;52.332;5.614;2022-07-04T13:55:40;2.22;;;0.90;;
48635;SDS011;34429;52.332;5.614;2022-07-04T13:58:09;2.67;;;1.10;;
48635;SDS011;34429;52.332;5.614;2022-07-04T14:03:10;2.55;;;1.00;;
48635;SDS011;34429;52.332;5.614;2022-07-04T14:05:40;2.70;;;0.93;;
48635;SDS011;34429;52.332;5.614;2022-07-04T14:08:08;2.72;;;1.10;;
48635;SDS011;34429;52.332;5.614;2022-07-04T14:10:37;2.35;;;0.98;;
48635;SDS011;34429;52.332;5.614;2022-07-04T14:13:05;5.32;;;1.17;;
48635;SDS011;34429;52.332;5.614;2022-07-04T14:15:33;2.47;;;0.90;;
48635;SDS011;34429;52.332;5.614;2022-07-04T14:18:05;1.40;;;0.95;;
48635;SDS011;34429;52.332;5.614;2022-07-04T14:20:38;2.38;;;1.00;;
48635;SDS011;34429;52.332;5.614;2022-07-04T14:23:07;2.38;;;0.85;;
48635;SDS011;34429;52.332;5.614;2022-07-04T14:28:06;2.55;;;1.05;;
48635;SDS011;34429;52.332;5.614;2022-07-04T14:30:34;2.25;;;1.17;;
48635;SDS011;34429;52.332;5.614;2022-07-04T14:33:05;2.25;;;0.93;;
48635;SDS011;34429;52.332;5.614;2022-07-04T14:35:36;2.13;;;0.90;;
48635;SDS011;34429;52.332;5.614;2022-07-04T14:40:33;5.25;;;1.27;;
48635;SDS011;34429;52.332;5.614;2022-07-04T14:43:04;1.60;;;0.90;;
48635;SDS011;34429;52.332;5.614;2022-07-04T14:45:32;2.03;;;1.00;;
48635;SDS011;34429;52.332;5.614;2022-07-04T14:48:00;1.65;;;0.90;;
48635;SDS011;34429;52.332;5.614;2022-07-04T14:50:31;1.25;;;1.02;;
48635;SDS011;34429;52.332;5.614;2022-07-04T14:53:00;3.47;;;1.00;;
48635;SDS011;34429;52.332;5.614;2022-07-04T14:55:28;3.03;;;1.10;;
48635;SDS011;34429;52.332;5.614;2022-07-04T14:57:56;2.78;;;1.20;;
48635;SDS011;34429;52.332;5.614;2022-07-04T15:00:27;3.80;;;1.15;;
48635;SDS011;34429;52.332;5.614;2022-07-04T15:05:27;1.67;;;1.02;;
48635;SDS011;34429;52.332;5.614;2022-07-04T15:07:58;3.15;;;0.98;;
48635;SDS011;34429;52.332;5.614;2022-07-04T15:10:29;2.70;;;1.20;;
48635;SDS011;34429;52.332;5.614;2022-07-04T15:12:57;2.30;;;1.10;;
48635;SDS011;34429;52.332;5.614;2022-07-04T15:15:25;4.07;;;1.23;;
48635;SDS011;34429;52.332;5.614;2022-07-04T15:17:54;2.50;;;1.10;;
48635;SDS011;34429;52.332;5.614;2022-07-04T15:20:22;2.55;;;1.20;;
48635;SDS011;34429;52.332;5.614;2022-07-04T15:23:06;2.30;;;1.23;;